KGON/GON METAR and TAF weather

Enter ICAO airport designator
Station Type Date Time Source
KGON METAR 2021/08/05 03:33 UTC NOAA

KGON 050333Z AUTO 36008KT 6SM -RA BR OVC015 17/17 A3011 RMK AO2 P0004 T01720167


Station Type Date Time Source
KGON Decoded METAR 2021/08/05 03:33 UTC NOAA

GROTON/NEW LONDON AIRPORT , CT, United States (KGON) 41-20N 72-03W 3M
Aug 04, 2021 - 11:33 PM EDT / 2021.08.05 0333 UTC
Wind: from the N (360 degrees) at 9 MPH (8 KT):0
Visibility: 6 mile(s):0
Sky conditions: overcast
Weather: light rain; mist
Precipitation last hour: 0.04 inches
Temperature: 63.0 F (17.2 C)
Dew Point: 62.1 F (16.7 C)
Relative Humidity: 96%
Pressure (altimeter): 30.11 in. Hg (1019 hPa)
ob: KGON 050333Z AUTO 36008KT 6SM -RA BR OVC015 17/17 A3011 RMK AO2 P0004 T01720167
cycle: 3

Station Type Date Time Source
KGON TAF 2021/08/05 02:36 UTC NOAA

TAF
AMD KGON 050233Z 0502/0524 05008KT P6SM -RA OVC010
TEMPO 0503/0507 4SM +RA
FM050700 01007KT 5SM -RA OVC010
FM051500 01008KT 5SM BR VCSH SCT008 OVC015
FM051700 34008KT P6SM BKN020

Example: see airport list